createdAt,value
2023-04-13T00:00:31.307Z,1.3
2023-04-13T00:01:39.653Z,1.3
2023-04-13T00:02:48.286Z,1.3
2023-04-13T00:03:56.604Z,1.3
2023-04-13T00:05:04.819Z,1.3
2023-04-13T00:06:13.350Z,0.6
2023-04-13T00:07:21.651Z,0.6
2023-04-13T00:08:30.019Z,0.6
2023-04-13T00:09:38.559Z,0.5
2023-04-13T00:10:46.837Z,0.5
2023-04-13T00:11:55.150Z,0.5
2023-04-13T00:13:03.689Z,0.8
2023-04-13T00:14:12.030Z,0.8
2023-04-13T00:15:20.331Z,0.8
2023-04-13T00:16:28.890Z,0.8
2023-04-13T00:17:37.215Z,0.8
2023-04-13T00:18:45.528Z,0.8
2023-04-13T00:19:54.058Z,1.5
2023-04-13T00:21:02.377Z,1.5
2023-04-13T00:22:10.700Z,1.5
2023-04-13T00:23:19.237Z,0.3
2023-04-13T00:24:27.578Z,0.3
2023-04-13T00:25:35.865Z,0.3
2023-04-13T00:26:44.398Z,0.7
2023-04-13T00:27:52.739Z,0.7
2023-04-13T00:29:01.065Z,0.7
2023-04-13T00:30:09.587Z,1.1
2023-04-13T00:31:17.929Z,1.1
2023-04-13T00:32:26.237Z,1.1
2023-04-13T00:33:34.780Z,1
2023-04-13T00:34:43.112Z,1
2023-04-13T00:35:51.422Z,1
2023-04-13T00:36:59.943Z,1.4
2023-04-13T00:38:08.271Z,1.4
2023-04-13T00:39:16.598Z,1.4
2023-04-13T00:40:25.142Z,0.6
2023-04-13T00:41:33.428Z,0.6
2023-04-13T00:42:41.759Z,0.6
2023-04-13T00:43:50.291Z,1.1
2023-04-13T00:44:58.607Z,1.1
2023-04-13T00:46:06.957Z,1.1
2023-04-13T00:47:15.447Z,0.6
2023-04-13T00:48:23.779Z,0.6
2023-04-13T00:49:32.088Z,0.6
2023-04-13T00:50:40.616Z,2.5
2023-04-13T00:51:48.935Z,2.5
2023-04-13T00:52:57.250Z,2.5
2023-04-13T00:54:05.776Z,0.6
2023-04-13T00:55:14.101Z,0.6
2023-04-13T00:56:22.443Z,0.6
2023-04-13T00:57:30.943Z,0.3
2023-04-13T00:58:39.281Z,0.3
2023-04-13T00:59:47.604Z,0.3
2023-04-13T01:00:56.144Z,1.1
2023-04-13T01:02:04.496Z,1.1
2023-04-13T01:03:13.227Z,1.1
2023-04-13T01:04:21.337Z,1.7
2023-04-13T01:05:29.646Z,1.7
2023-04-13T01:06:37.977Z,1.7
2023-04-13T01:07:46.497Z,1.1
2023-04-13T01:08:54.818Z,1.1
2023-04-13T01:10:03.140Z,1.1
2023-04-13T01:11:11.677Z,1.3
2023-04-13T01:12:20.044Z,1.3
2023-04-13T01:13:28.328Z,1.3
2023-04-13T01:14:36.859Z,1.4
2023-04-13T01:15:45.183Z,1.4
2023-04-13T01:16:53.497Z,1.4
2023-04-13T01:18:02.057Z,1
2023-04-13T01:19:10.368Z,1
2023-04-13T01:20:18.680Z,1
2023-04-13T01:21:27.205Z,2
2023-04-13T01:22:35.533Z,2
2023-04-13T01:23:43.864Z,2
2023-04-13T01:24:52.382Z,1.4
2023-04-13T01:26:00.711Z,1.4
2023-04-13T01:27:09.035Z,1.4
2023-04-13T01:28:17.609Z,0.9
2023-04-13T01:29:25.897Z,0.9
2023-04-13T01:30:34.224Z,0.9
2023-04-13T01:31:42.773Z,0.9
2023-04-13T01:32:51.104Z,0.9
2023-04-13T01:33:59.637Z,0.9
2023-04-13T01:35:07.929Z,1.7
2023-04-13T01:36:16.241Z,1.7
2023-04-13T01:37:24.564Z,1.7
2023-04-13T01:38:33.098Z,1.1
2023-04-13T01:39:41.416Z,1.1
2023-04-13T01:40:49.742Z,1.1
2023-04-13T01:41:58.276Z,1
2023-04-13T01:43:06.604Z,1
2023-04-13T01:44:14.956Z,1
2023-04-13T01:45:23.470Z,1.3
2023-04-13T01:46:31.815Z,1.3
2023-04-13T01:47:40.151Z,1.3
2023-04-13T01:48:48.659Z,1.5
2023-04-13T01:49:56.969Z,1.5
2023-04-13T01:51:05.301Z,1.5
2023-04-13T01:52:13.860Z,2
2023-04-13T01:53:22.178Z,2
2023-04-13T01:54:30.502Z,2
2023-04-13T01:55:39.020Z,1.2
2023-04-13T01:56:47.350Z,1.2
2023-04-13T01:57:55.688Z,1.2
2023-04-13T01:59:04.212Z,2.1
2023-04-13T02:00:12.568Z,2.1
2023-04-13T02:01:20.929Z,2.1
2023-04-13T02:02:29.460Z,2.6
2023-04-13T02:03:37.781Z,2.6
2023-04-13T02:04:46.025Z,2.6
2023-04-13T02:05:54.557Z,1.8
2023-04-13T02:07:02.898Z,1.8
2023-04-13T02:08:11.223Z,1.8
2023-04-13T02:09:19.754Z,1.8
2023-04-13T02:10:28.083Z,1.8
2023-04-13T02:11:36.420Z,1.8
2023-04-13T02:12:44.949Z,1.5
2023-04-13T02:13:53.273Z,1.5
2023-04-13T02:15:01.624Z,1.5
2023-04-13T02:16:10.168Z,2.2
2023-04-13T02:17:18.458Z,2.2
2023-04-13T02:18:26.788Z,2.2
2023-04-13T02:19:35.318Z,2.1
2023-04-13T02:20:43.628Z,2.1
2023-04-13T02:21:51.958Z,2.1
2023-04-13T02:23:00.472Z,1.7
2023-04-13T02:24:08.801Z,1.7
2023-04-13T02:25:17.116Z,1.7
2023-04-13T02:26:25.728Z,1.5
2023-04-13T02:27:34.056Z,1.5
2023-04-13T02:28:42.370Z,1.5
2023-04-13T02:29:50.903Z,2
2023-04-13T02:30:59.244Z,2
2023-04-13T02:32:07.605Z,2
2023-04-13T02:33:16.100Z,1.5
2023-04-13T02:34:24.431Z,1.5
2023-04-13T02:35:34.459Z,1.5
2023-04-13T02:36:41.288Z,1.4
2023-04-13T02:37:49.624Z,1.4
2023-04-13T02:38:57.939Z,1.4
2023-04-13T02:40:06.472Z,1.4
2023-04-13T02:41:14.783Z,1.4
2023-04-13T02:42:23.107Z,1.4
2023-04-13T02:43:31.658Z,2.4
2023-04-13T02:44:39.957Z,2.4
2023-04-13T02:45:48.320Z,2.4
2023-04-13T02:46:56.820Z,1.9
2023-04-13T02:48:05.270Z,1.9
2023-04-13T02:49:13.458Z,1.9
2023-04-13T02:50:21.993Z,1.7
2023-04-13T02:51:30.321Z,1.7
2023-04-13T02:52:38.643Z,1.7
2023-04-13T02:53:47.168Z,1.9
2023-04-13T02:54:55.512Z,1.9
2023-04-13T02:56:03.836Z,1.9
2023-04-13T02:57:12.371Z,2.4
2023-04-13T02:58:20.703Z,2.4
2023-04-13T02:59:29.005Z,2.4
2023-04-13T03:00:37.548Z,2.2
2023-04-13T03:01:46.144Z,2.2
2023-04-13T03:02:54.228Z,2.2
2023-04-13T03:04:02.770Z,1.7
2023-04-13T03:05:11.064Z,1.7
2023-04-13T03:06:19.400Z,1.7
2023-04-13T03:07:27.919Z,2.7
2023-04-13T03:08:36.235Z,2.7
2023-04-13T03:09:44.564Z,2.7
2023-04-13T03:10:53.080Z,2
2023-04-13T03:12:01.418Z,2
2023-04-13T03:13:09.736Z,2
2023-04-13T03:14:18.261Z,2.9
2023-04-13T03:15:26.589Z,2.9
2023-04-13T03:16:34.933Z,2.9
2023-04-13T03:17:43.493Z,2.5
2023-04-13T03:18:51.777Z,2.5
2023-04-13T03:20:00.126Z,2.5
2023-04-13T03:21:08.636Z,2.9
2023-04-13T03:22:16.953Z,2.9
2023-04-13T03:23:25.291Z,2.9
2023-04-13T03:24:33.803Z,2
2023-04-13T03:25:42.132Z,2
2023-04-13T03:26:50.441Z,2
2023-04-13T03:27:58.958Z,3.9
2023-04-13T03:29:07.299Z,3.9
2023-04-13T03:30:15.622Z,3.9
2023-04-13T03:31:24.199Z,3.3
2023-04-13T03:32:32.494Z,3.3
2023-04-13T03:33:40.807Z,3.3
2023-04-13T03:34:49.349Z,2.5
2023-04-13T03:35:57.701Z,2.5
2023-04-13T03:37:06.003Z,2.5
2023-04-13T03:38:14.521Z,1.6
2023-04-13T03:39:22.851Z,1.6
2023-04-13T03:40:31.182Z,1.6
2023-04-13T03:41:39.718Z,2
2023-04-13T03:42:48.030Z,2
2023-04-13T03:43:56.423Z,2
2023-04-13T03:45:04.883Z,3
2023-04-13T03:46:13.283Z,3
2023-04-13T03:47:21.561Z,3
2023-04-13T03:48:30.063Z,2.3
2023-04-13T03:49:38.387Z,2.3
2023-04-13T03:50:46.712Z,2.3
2023-04-13T03:51:55.268Z,20.4
2023-04-13T03:53:03.593Z,20.4
2023-04-13T03:54:11.973Z,20.4
2023-04-13T03:55:20.433Z,7.1
2023-04-13T03:56:28.742Z,7.1
2023-04-13T03:57:37.068Z,7.1
2023-04-13T03:58:45.583Z,3.1
2023-04-13T03:59:53.903Z,3.1
2023-04-13T04:01:02.230Z,3.1
2023-04-13T04:02:10.782Z,2
2023-04-13T04:03:19.155Z,2
2023-04-13T04:04:27.548Z,2
2023-04-13T04:05:35.947Z,3.5
2023-04-13T04:06:44.265Z,3.5
2023-04-13T04:07:52.615Z,3.5
2023-04-13T04:09:01.105Z,2.9
2023-04-13T04:10:09.432Z,2.9
2023-04-13T04:11:17.754Z,2.9
2023-04-13T04:12:26.285Z,3.4
2023-04-13T04:13:34.608Z,3.4
2023-04-13T04:14:42.909Z,3.4
2023-04-13T04:15:51.465Z,3.1
2023-04-13T04:16:59.760Z,3.1
2023-04-13T04:18:08.685Z,3.1
2023-04-13T04:19:16.599Z,3.8
2023-04-13T04:20:24.906Z,3.8
2023-04-13T04:21:33.254Z,3.8
2023-04-13T04:22:41.786Z,3
2023-04-13T04:23:50.128Z,3
2023-04-13T04:24:58.419Z,3
2023-04-13T04:26:06.971Z,3.3
2023-04-13T04:27:15.293Z,3.3
2023-04-13T04:28:23.614Z,3.3
2023-04-13T04:29:32.138Z,3.1
2023-04-13T04:30:40.467Z,3.1
2023-04-13T04:31:48.818Z,3.1
2023-04-13T04:32:57.385Z,2.8
2023-04-13T04:34:05.667Z,2.8
2023-04-13T04:35:13.988Z,2.8
2023-04-13T04:36:22.527Z,2.7
2023-04-13T04:37:30.846Z,2.7
2023-04-13T04:38:39.157Z,2.7
2023-04-13T04:39:47.721Z,2.6
2023-04-13T04:40:56.028Z,2.6
2023-04-13T04:42:04.360Z,2.6
2023-04-13T04:43:12.869Z,2.8
2023-04-13T04:44:21.186Z,2.8
2023-04-13T04:45:29.695Z,2.8
2023-04-13T04:46:38.132Z,4
2023-04-13T04:47:46.453Z,4
2023-04-13T04:48:54.861Z,4
2023-04-13T04:50:03.382Z,3.2
2023-04-13T04:51:11.737Z,3.2
2023-04-13T04:52:20.034Z,3.2
2023-04-13T04:53:28.556Z,3.3
2023-04-13T04:54:36.863Z,3.3
2023-04-13T04:55:45.205Z,3.3
2023-04-13T04:56:53.698Z,3.2
2023-04-13T04:58:02.060Z,3.2
2023-04-13T04:59:10.347Z,3.2
2023-04-13T05:00:18.882Z,3.7
2023-04-13T05:01:27.218Z,3.7
2023-04-13T05:02:35.708Z,3.7
2023-04-13T05:03:44.022Z,12.7
2023-04-13T05:04:52.403Z,12.7
2023-04-13T05:06:00.660Z,12.7
2023-04-13T05:07:09.175Z,1.9
2023-04-13T05:08:17.504Z,1.9
2023-04-13T05:09:25.805Z,1.9
2023-04-13T05:10:34.384Z,16.700001
2023-04-13T05:11:42.709Z,16.700001
2023-04-13T05:12:51.006Z,16.700001
2023-04-13T05:13:59.530Z,15.5
2023-04-13T05:15:07.883Z,15.5
2023-04-13T05:16:16.224Z,15.5
2023-04-13T05:17:24.732Z,9.8
2023-04-13T05:18:33.040Z,9.8
2023-04-13T05:19:41.354Z,9.8
2023-04-13T05:20:49.902Z,3.5
2023-04-13T05:21:58.222Z,3.5
2023-04-13T05:23:06.537Z,3.5
2023-04-13T05:24:15.059Z,4.3
2023-04-13T05:25:23.376Z,4.3
2023-04-13T05:26:31.699Z,4.3
2023-04-13T05:27:40.270Z,2.8
2023-04-13T05:28:48.555Z,2.8
2023-04-13T05:29:56.872Z,2.8
2023-04-13T05:31:05.410Z,4.6
2023-04-13T05:32:13.749Z,4.6
2023-04-13T05:33:22.063Z,4.6
2023-04-13T05:34:30.584Z,6.3
2023-04-13T05:35:38.909Z,6.3
2023-04-13T05:36:47.225Z,6.3
2023-04-13T05:37:57.115Z,6.5
2023-04-13T05:39:04.077Z,6.5
2023-04-13T05:40:12.389Z,6.5
2023-04-13T05:41:20.917Z,4.3
2023-04-13T05:42:29.245Z,4.3
2023-04-13T05:43:37.606Z,4.3
2023-04-13T05:44:46.098Z,27.799999
2023-04-13T05:45:54.461Z,27.799999
2023-04-13T05:47:02.767Z,27.799999
2023-04-13T05:48:11.913Z,9.1
2023-04-13T05:49:21.323Z,9.1
2023-04-13T05:50:30.733Z,9.1
2023-04-13T05:51:39.273Z,10.7
2023-04-13T05:52:48.052Z,10.7
2023-04-13T05:53:56.365Z,10.7
2023-04-13T05:55:04.905Z,4.3
2023-04-13T05:56:13.227Z,4.3
2023-04-13T05:57:21.544Z,4.3
2023-04-13T05:58:30.080Z,6.3
2023-04-13T05:59:38.468Z,6.3
2023-04-13T06:00:46.764Z,6.3
2023-04-13T06:01:55.326Z,4.3
2023-04-13T06:03:03.758Z,4.3
2023-04-13T06:04:12.083Z,4.3
2023-04-13T06:05:20.529Z,2.7
2023-04-13T06:06:28.790Z,2.7
2023-04-13T06:07:37.145Z,2.7
2023-04-13T06:08:45.663Z,6.4
2023-04-13T06:09:53.970Z,6.4
2023-04-13T06:11:02.338Z,6.4
2023-04-13T06:12:10.875Z,2.8
2023-04-13T06:13:19.228Z,2.8
2023-04-13T06:14:27.533Z,2.8
2023-04-13T06:15:36.091Z,5.3
2023-04-13T06:16:44.448Z,5.3
2023-04-13T06:17:52.874Z,5.3
2023-04-13T06:19:01.365Z,3.1
2023-04-13T06:20:09.593Z,3.1
2023-04-13T06:21:17.932Z,3.1
2023-04-13T06:22:26.454Z,1.6
2023-04-13T06:23:34.797Z,1.6
2023-04-13T06:24:43.122Z,1.6
2023-04-13T06:25:51.639Z,2.5
2023-04-13T06:26:59.968Z,2.5
2023-04-13T06:28:08.281Z,2.5
2023-04-13T06:29:16.819Z,4.5
2023-04-13T06:30:25.164Z,4.5
2023-04-13T06:31:33.660Z,4.5
2023-04-13T06:32:42.029Z,3.9
2023-04-13T06:33:50.324Z,3.9
2023-04-13T06:34:58.654Z,3.9
2023-04-13T06:36:07.180Z,4.3
2023-04-13T06:37:15.489Z,4.3
2023-04-13T06:38:23.797Z,4.3
2023-04-13T06:39:32.972Z,2.2
2023-04-13T06:40:40.656Z,2.2
2023-04-13T06:41:48.979Z,2.2
2023-04-13T06:42:57.504Z,4.3
2023-04-13T06:44:05.826Z,4.3
2023-04-13T06:45:14.163Z,4.3
2023-04-13T06:46:22.721Z,4.4
2023-04-13T06:47:31.081Z,4.4
2023-04-13T06:48:39.359Z,4.4
2023-04-13T06:49:47.888Z,3.7
2023-04-13T06:50:56.227Z,3.7
2023-04-13T06:52:04.584Z,3.7
2023-04-13T06:53:13.065Z,3.1
2023-04-13T06:54:21.396Z,3.1
2023-04-13T06:55:29.711Z,3.1
2023-04-13T06:56:38.262Z,2.9
2023-04-13T06:57:46.578Z,2.9
2023-04-13T06:58:55.851Z,2.9
2023-04-13T07:00:03.471Z,4
2023-04-13T07:01:11.830Z,4
2023-04-13T07:02:20.168Z,4
2023-04-13T07:03:28.793Z,4.1
2023-04-13T07:04:37.029Z,4.1
2023-04-13T07:05:45.270Z,4.1
2023-04-13T07:06:53.793Z,7.2
2023-04-13T07:08:02.146Z,7.2
2023-04-13T07:09:10.448Z,7.2
2023-04-13T07:10:19.008Z,8.8
2023-04-13T07:11:27.314Z,8.8
2023-04-13T07:12:35.636Z,8.8
2023-04-13T07:13:44.174Z,3.1
2023-04-13T07:14:52.484Z,3.1
2023-04-13T07:16:00.874Z,3.1
2023-04-13T07:17:11.313Z,4.2
2023-04-13T07:18:17.680Z,4.2
2023-04-13T07:19:26.025Z,4.2
2023-04-13T07:20:34.578Z,9.5
2023-04-13T07:21:42.855Z,9.5
2023-04-13T07:22:51.172Z,9.5
2023-04-13T07:23:59.709Z,7.1
2023-04-13T07:25:08.041Z,7.1
2023-04-13T07:26:16.353Z,7.1
2023-04-13T07:27:24.884Z,9.5
2023-04-13T07:28:33.217Z,9.5
2023-04-13T07:29:41.566Z,9.5
2023-04-13T07:30:50.084Z,11.9
2023-04-13T07:31:58.494Z,11.9
2023-04-13T07:33:06.868Z,11.9
2023-04-13T07:34:15.578Z,6.3
2023-04-13T07:35:23.976Z,6.3
2023-04-13T07:36:32.230Z,6.3
2023-04-13T07:37:40.759Z,5.2
2023-04-13T07:38:49.106Z,5.2
2023-04-13T07:39:57.425Z,5.2
2023-04-13T07:41:05.962Z,6.8
2023-04-13T07:42:14.304Z,6.8
2023-04-13T07:43:22.605Z,6.8
2023-04-13T07:44:31.164Z,4
2023-04-13T07:45:39.490Z,4
2023-04-13T07:46:47.885Z,4
2023-04-13T07:47:56.349Z,5
2023-04-13T07:49:04.679Z,5
2023-04-13T07:50:13.016Z,5
2023-04-13T07:51:21.556Z,4.7
2023-04-13T07:52:29.862Z,4.7
2023-04-13T07:53:38.199Z,4.7
2023-04-13T07:54:46.730Z,6
2023-04-13T07:55:55.047Z,6
2023-04-13T07:57:03.386Z,6
2023-04-13T07:58:11.953Z,4.3
2023-04-13T07:59:20.296Z,4.3
2023-04-13T08:00:28.608Z,4.3
2023-04-13T08:01:37.155Z,6.4
2023-04-13T08:02:45.651Z,6.4
2023-04-13T08:03:53.942Z,6.4
2023-04-13T08:05:02.533Z,5.1
2023-04-13T08:06:10.711Z,5.1
2023-04-13T08:07:19.071Z,5.1
2023-04-13T08:08:27.576Z,4.4
2023-04-13T08:09:35.898Z,4.4
2023-04-13T08:10:44.208Z,4.4
2023-04-13T08:11:52.747Z,4.1
2023-04-13T08:13:01.091Z,4.1
2023-04-13T08:14:09.397Z,4.1
2023-04-13T08:15:17.921Z,5.8
2023-04-13T08:16:26.253Z,5.8
2023-04-13T08:17:34.585Z,5.8
2023-04-13T08:18:43.111Z,8.3
2023-04-13T08:19:51.439Z,8.3
2023-04-13T08:20:59.753Z,8.3
2023-04-13T08:22:08.275Z,6.6
2023-04-13T08:23:16.655Z,6.6
2023-04-13T08:24:24.949Z,6.6
2023-04-13T08:25:33.474Z,6
2023-04-13T08:26:42.417Z,6
2023-04-13T08:27:50.715Z,6
2023-04-13T08:28:59.519Z,4.4
2023-04-13T08:30:07.641Z,4.4
2023-04-13T08:31:15.906Z,4.4
2023-04-13T08:32:24.438Z,5.4
2023-04-13T08:33:32.728Z,5.4
2023-04-13T08:34:41.043Z,5.4
2023-04-13T08:35:49.576Z,4.8
2023-04-13T08:36:57.926Z,4.8
2023-04-13T08:38:06.249Z,4.8
2023-04-13T08:39:14.835Z,6.6
2023-04-13T08:40:23.095Z,6.6
2023-04-13T08:41:31.406Z,6.6
2023-04-13T08:42:39.938Z,6.2
2023-04-13T08:43:48.260Z,6.2
2023-04-13T08:44:56.588Z,6.2
2023-04-13T08:46:05.132Z,5.2
2023-04-13T08:47:13.423Z,5.2
2023-04-13T08:48:21.747Z,5.2
2023-04-13T08:49:30.277Z,4.9
2023-04-13T08:50:38.606Z,4.9
2023-04-13T08:51:46.902Z,4.9
2023-04-13T08:52:55.435Z,5.2
2023-04-13T08:54:03.792Z,5.2
2023-04-13T08:55:12.179Z,5.2
2023-04-13T08:56:22.643Z,3.5
2023-04-13T08:57:29.012Z,3.5
2023-04-13T08:58:37.323Z,3.5
2023-04-13T08:59:45.854Z,4.9
2023-04-13T09:00:54.215Z,4.9
2023-04-13T09:02:02.497Z,4.9
2023-04-13T09:04:19.490Z,4
2023-04-13T09:05:27.744Z,4
2023-04-13T09:06:36.178Z,5.7
2023-04-13T09:07:44.496Z,5.7
2023-04-13T09:08:52.812Z,5.7
2023-04-13T09:10:01.661Z,5.5
2023-04-13T09:11:09.742Z,5.5
2023-04-13T09:12:18.008Z,5.5
2023-04-13T09:13:26.539Z,4.7
2023-04-13T09:14:35.001Z,4.7
2023-04-13T09:15:43.181Z,4.7
2023-04-13T09:16:51.780Z,4.7
2023-04-13T09:18:00.086Z,4.7
2023-04-13T09:19:08.568Z,4.7
2023-04-13T09:20:16.870Z,12.1
2023-04-13T09:21:25.193Z,12.1
2023-04-13T09:22:33.507Z,12.1
2023-04-13T09:23:42.044Z,11
2023-04-13T09:24:50.368Z,11
2023-04-13T09:25:58.665Z,11
2023-04-13T09:27:07.215Z,4.8
2023-04-13T09:28:15.518Z,4.8
2023-04-13T09:29:23.931Z,4.8
2023-04-13T09:30:32.446Z,4
2023-04-13T09:31:42.158Z,4
2023-04-13T09:32:49.205Z,4
2023-04-13T09:33:57.750Z,3.9
2023-04-13T09:35:06.021Z,3.9
2023-04-13T09:36:14.333Z,3.9
2023-04-13T09:37:22.914Z,7.9
2023-04-13T09:38:31.234Z,7.9
2023-04-13T09:39:39.576Z,7.9
2023-04-13T09:40:48.124Z,7.7
2023-04-13T09:41:56.461Z,7.7
2023-04-13T09:43:04.814Z,7.7
2023-04-13T09:44:13.305Z,4.4
2023-04-13T09:45:21.642Z,4.4
2023-04-13T09:46:30.018Z,4.4
2023-04-13T09:47:38.636Z,4.5
2023-04-13T09:48:46.854Z,4.5
2023-04-13T09:49:55.176Z,4.5
2023-04-13T09:51:03.734Z,3.9
2023-04-13T09:52:12.064Z,3.9
2023-04-13T09:53:20.442Z,3.9
2023-04-13T09:54:28.989Z,3.7
2023-04-13T09:55:37.349Z,3.7
2023-04-13T09:56:45.686Z,3.7
2023-04-13T09:57:54.246Z,5.1
2023-04-13T09:59:02.600Z,5.1
2023-04-13T10:00:10.891Z,5.1
2023-04-13T10:01:19.537Z,4.7
2023-04-13T10:02:28.032Z,4.7
2023-04-13T10:03:36.112Z,4.7
2023-04-13T10:04:44.662Z,4.7
2023-04-13T10:05:59.296Z,4.7
2023-04-13T10:07:01.325Z,4.7
2023-04-13T10:08:09.865Z,5.9
2023-04-13T10:09:18.198Z,5.9
2023-04-13T10:10:26.509Z,5.9
2023-04-13T10:11:35.074Z,5.7
2023-04-13T10:12:43.398Z,5.7
2023-04-13T10:13:51.721Z,5.7
2023-04-13T10:15:00.280Z,4.7
2023-04-13T10:16:08.612Z,4.7
2023-04-13T10:17:17.011Z,4.7
2023-04-13T10:18:25.553Z,3.5
2023-04-13T10:19:33.824Z,3.5
2023-04-13T10:20:42.156Z,3.5
2023-04-13T10:21:51.721Z,6.6
2023-04-13T10:22:59.023Z,6.6
2023-04-13T10:25:21.958Z,9.4
2023-04-13T10:26:24.194Z,9.4
2023-04-13T10:27:32.576Z,9.4
2023-04-13T10:28:41.086Z,4.9
2023-04-13T10:29:49.417Z,4.9
2023-04-13T10:30:57.911Z,4.9
2023-04-13T10:32:06.401Z,6.3
2023-04-13T10:33:14.674Z,6.3
2023-04-13T10:34:23.015Z,6.3
2023-04-13T10:35:31.543Z,5.2
2023-04-13T10:36:39.895Z,5.2
2023-04-13T10:37:48.218Z,5.2
2023-04-13T10:38:56.798Z,4.5
2023-04-13T10:40:05.079Z,4.5
2023-04-13T10:41:13.415Z,4.5
2023-04-13T10:42:21.956Z,3.9
2023-04-13T10:43:30.295Z,3.9
2023-04-13T10:44:39.177Z,3.9
2023-04-13T10:45:47.160Z,6.9
2023-04-13T10:46:55.533Z,6.9
2023-04-13T10:48:03.885Z,6.9
2023-04-13T10:49:12.379Z,4.1
2023-04-13T10:50:20.720Z,4.1
2023-04-13T10:51:29.053Z,4.1
2023-04-13T10:52:37.657Z,30.700001
2023-04-13T10:53:45.962Z,30.700001
2023-04-13T10:54:54.324Z,30.700001
2023-04-13T10:56:02.874Z,11.2
2023-04-13T10:57:11.307Z,11.2
2023-04-13T10:58:19.552Z,11.2
2023-04-13T10:59:28.087Z,8.4
2023-04-13T11:01:44.831Z,8.4
2023-04-13T11:02:53.562Z,4.5
2023-04-13T11:04:05.065Z,4.5
2023-04-13T11:05:09.989Z,4.5
2023-04-13T11:06:18.577Z,4.7
2023-04-13T11:07:27.016Z,4.7
2023-04-13T11:08:35.346Z,4.7
2023-04-13T11:09:43.810Z,6.1
2023-04-13T11:10:52.137Z,6.1
2023-04-13T11:12:00.474Z,6.1
2023-04-13T11:13:09.000Z,4.2
2023-04-13T11:14:18.806Z,4.2
2023-04-13T11:15:25.712Z,4.2
2023-04-13T11:16:34.290Z,4.2
2023-04-13T11:17:42.611Z,4.2
2023-04-13T11:18:50.990Z,4.2
2023-04-13T11:19:59.500Z,3.1
2023-04-13T11:21:08.858Z,3.1
2023-04-13T11:22:16.194Z,3.1
2023-04-13T11:23:24.795Z,4.7
2023-04-13T11:24:33.078Z,4.7
2023-04-13T11:25:41.401Z,4.7
2023-04-13T11:26:49.974Z,6.3
2023-04-13T11:27:58.296Z,6.3
2023-04-13T11:29:06.631Z,6.3
2023-04-13T11:30:15.203Z,5
2023-04-13T11:31:23.580Z,5
2023-04-13T11:32:31.911Z,5
2023-04-13T11:33:40.902Z,5.6
2023-04-13T11:34:48.810Z,5.6
2023-04-13T11:35:57.118Z,5.6
2023-04-13T11:37:05.714Z,3.2
2023-04-13T11:38:13.989Z,3.2
2023-04-13T11:39:22.383Z,3.2
2023-04-13T11:40:30.941Z,4.5
2023-04-13T11:41:39.279Z,4.5
2023-04-13T11:42:47.614Z,4.5
2023-04-13T11:43:56.151Z,4
2023-04-13T11:45:04.477Z,4
2023-04-13T11:46:12.972Z,4
2023-04-13T11:47:21.406Z,3.2
2023-04-13T11:48:29.760Z,3.2
2023-04-13T11:49:38.109Z,3.2
2023-04-13T11:50:46.731Z,3.5
2023-04-13T11:51:55.032Z,3.5
2023-04-13T11:53:03.440Z,3.5
2023-04-13T11:54:11.991Z,3.2
2023-04-13T11:55:23.566Z,3.2
2023-04-13T11:56:28.684Z,3.2
2023-04-13T11:57:37.227Z,2.4
2023-04-13T11:58:45.585Z,2.4
2023-04-13T11:59:53.943Z,2.4
2023-04-13T12:01:03.349Z,4.3
2023-04-13T12:02:20.664Z,4.3
2023-04-13T12:04:27.887Z,4.4
2023-04-13T12:05:36.137Z,4.4
2023-04-13T12:06:45.308Z,4.4
2023-04-13T12:07:53.460Z,4.3
2023-04-13T12:09:08.927Z,4.3
2023-04-13T12:10:10.884Z,4.3
2023-04-13T12:11:40.196Z,3.5
2023-04-13T12:13:36.379Z,3.5
2023-04-13T12:16:05.966Z,2.8
2023-04-13T12:17:04.400Z,2.8
2023-04-13T12:18:14.547Z,4.4
2023-04-13T12:19:17.164Z,4.4
2023-04-13T12:20:26.295Z,4.4
2023-04-13T12:21:33.934Z,3.2
2023-04-13T12:22:51.338Z,3.2
2023-04-13T12:23:50.477Z,3.2
2023-04-13T12:24:59.425Z,5.7
2023-04-13T12:26:32.554Z,5.7
2023-04-13T12:27:18.673Z,5.7
2023-04-13T12:28:24.264Z,3.1
2023-04-13T12:29:32.590Z,3.1
2023-04-13T12:30:40.933Z,3.1
2023-04-13T12:31:49.504Z,4.1
2023-04-13T12:32:57.874Z,4.1
2023-04-13T12:34:06.145Z,4.1
2023-04-13T12:35:14.712Z,5.8
2023-04-13T12:36:23.074Z,5.8
2023-04-13T12:37:31.424Z,5.8
2023-04-13T12:38:40.067Z,2
2023-04-13T12:39:48.392Z,2
2023-04-13T12:40:56.781Z,2
2023-04-13T12:42:05.407Z,4.7
2023-04-13T12:43:13.705Z,4.7
2023-04-13T12:44:22.068Z,4.7
2023-04-13T12:45:30.632Z,3.6
2023-04-13T12:46:39.033Z,3.6
2023-04-13T12:47:47.385Z,3.6
2023-04-13T12:48:55.903Z,3.5
2023-04-13T12:50:04.285Z,3.5
2023-04-13T12:51:12.625Z,3.5
2023-04-13T12:52:21.191Z,2.7
2023-04-13T12:53:29.543Z,2.7
2023-04-13T12:54:37.916Z,2.7
2023-04-13T12:55:46.471Z,2.5
2023-04-13T12:56:54.814Z,2.5
2023-04-13T12:58:03.280Z,2.5
2023-04-13T12:59:11.850Z,3.9
2023-04-13T13:00:20.250Z,3.9
2023-04-13T13:01:28.593Z,3.9
2023-04-13T13:02:37.214Z,5.3
2023-04-13T13:03:45.598Z,5.3
2023-04-13T13:04:53.910Z,5.3
2023-04-13T13:06:02.416Z,3.8
2023-04-13T13:07:10.730Z,3.8
2023-04-13T13:08:19.110Z,3.8
2023-04-13T13:09:27.665Z,3.9
2023-04-13T13:10:36.081Z,3.9
2023-04-13T13:11:44.406Z,3.9
2023-04-13T13:12:52.947Z,5.9
2023-04-13T13:14:01.293Z,5.9
2023-04-13T13:15:09.659Z,5.9
2023-04-13T13:16:18.244Z,3.4
2023-04-13T13:17:26.610Z,3.4
2023-04-13T13:18:46.963Z,3.4
2023-04-13T13:19:43.957Z,4.2
2023-04-13T13:20:52.301Z,4.2
2023-04-13T13:22:00.661Z,4.2
2023-04-13T13:23:09.288Z,3.5
2023-04-13T13:24:17.668Z,3.5
2023-04-13T13:25:26.060Z,3.5
2023-04-13T13:26:45.777Z,4.6
2023-04-13T13:28:10.070Z,4.6
2023-04-13T13:28:51.361Z,4.6
2023-04-13T13:29:59.949Z,5.6
2023-04-13T13:31:08.330Z,5.6
2023-04-13T13:32:18.698Z,5.6
2023-04-13T13:33:25.238Z,6.4
2023-04-13T13:34:33.590Z,6.4
2023-04-13T13:35:41.943Z,6.4
2023-04-13T13:36:50.551Z,4
2023-04-13T13:37:58.904Z,4
2023-04-13T13:39:07.258Z,4
2023-04-13T13:40:15.860Z,4.8
2023-04-13T13:41:24.203Z,4.8
2023-04-13T13:42:40.535Z,4.8
2023-04-13T13:43:41.124Z,5.3
2023-04-13T13:44:49.555Z,5.3
2023-04-13T13:45:58.036Z,5.3
2023-04-13T13:47:06.469Z,5
2023-04-13T13:48:14.797Z,5
2023-04-13T13:49:23.142Z,5
2023-04-13T13:50:31.689Z,5.3
2023-04-13T13:51:40.038Z,5.3
2023-04-13T13:52:59.653Z,5.3
2023-04-13T13:53:56.949Z,4.4
2023-04-13T13:55:05.310Z,4.4
2023-04-13T13:56:13.666Z,4.4
2023-04-13T13:57:22.210Z,3.4
2023-04-13T13:58:30.564Z,3.4
2023-04-13T13:59:38.899Z,3.4
2023-04-13T14:00:47.472Z,3.9
2023-04-13T14:01:55.913Z,3.9
2023-04-13T14:03:04.274Z,3.9
2023-04-13T14:04:12.842Z,3.1
2023-04-13T14:05:21.125Z,3.1
2023-04-13T14:06:29.455Z,3.1
2023-04-13T14:07:38.038Z,4.1
2023-04-13T14:08:46.394Z,4.1
2023-04-13T14:09:54.745Z,4.1
2023-04-13T14:11:03.296Z,4.7
2023-04-13T14:12:11.643Z,4.7
2023-04-13T14:13:20.024Z,4.7
2023-04-13T14:14:28.591Z,3.2
2023-04-13T14:15:36.937Z,3.2
2023-04-13T14:16:45.305Z,3.2
2023-04-13T14:18:08.814Z,3.7
2023-04-13T14:19:02.346Z,3.7
2023-04-13T14:20:10.582Z,3.7
2023-04-13T14:21:19.153Z,4.1
2023-04-13T14:22:27.517Z,4.1
2023-04-13T14:23:35.904Z,4.1
2023-04-13T14:24:44.479Z,2.7
2023-04-13T14:25:52.827Z,2.7
2023-04-13T14:27:01.165Z,2.7
2023-04-13T14:28:09.735Z,3.3
2023-04-13T14:29:18.524Z,3.3
2023-04-13T14:30:28.067Z,3.3
2023-04-13T14:31:35.481Z,4.9
2023-04-13T14:32:43.886Z,4.9
2023-04-13T14:33:52.191Z,4.9
2023-04-13T14:35:00.741Z,4.7
2023-04-13T14:36:09.072Z,4.7
2023-04-13T14:37:17.415Z,4.7
2023-04-13T14:38:25.996Z,5
2023-04-13T14:39:34.329Z,5
2023-04-13T14:40:42.698Z,5
2023-04-13T14:41:51.241Z,5
2023-04-13T14:42:59.566Z,5
2023-04-13T14:44:07.912Z,5
2023-04-13T14:45:16.488Z,6.2
2023-04-13T14:46:24.900Z,6.2
2023-04-13T14:47:33.235Z,6.2
2023-04-13T14:48:41.727Z,6.5
2023-04-13T14:49:50.087Z,6.5
2023-04-13T14:50:58.427Z,6.5
2023-04-13T14:52:06.983Z,9.5
2023-04-13T14:53:15.390Z,9.5
2023-04-13T14:54:23.781Z,9.5
2023-04-13T14:55:32.363Z,5.3
2023-04-13T14:56:40.725Z,5.3
2023-04-13T14:57:49.084Z,5.3
2023-04-13T14:58:58.049Z,5.7
2023-04-13T15:00:05.988Z,5.7
2023-04-13T15:01:14.327Z,5.7
2023-04-13T15:02:23.108Z,6.4
2023-04-13T15:03:31.484Z,6.4
2023-04-13T15:04:39.761Z,6.4
2023-04-13T15:05:48.403Z,9
2023-04-13T15:38:36.970Z,0
2023-04-13T15:39:45.335Z,0
2023-04-13T15:40:53.700Z,0
2023-04-13T15:42:02.386Z,1.6
2023-04-13T15:43:10.687Z,1.6
2023-04-13T15:44:19.136Z,1.6
2023-04-13T15:45:27.734Z,1.8
2023-04-13T15:46:36.161Z,1.8
2023-04-13T15:47:44.520Z,1.8
2023-04-13T15:48:53.124Z,1
2023-04-13T15:50:01.575Z,1
2023-04-13T15:51:09.901Z,1
2023-04-13T15:52:18.504Z,2.1
2023-04-13T15:53:27.009Z,2.1
2023-04-13T15:54:35.322Z,2.1
2023-04-13T15:55:43.906Z,3
2023-04-13T15:56:52.263Z,3
2023-04-13T15:58:00.626Z,3
2023-04-13T15:59:09.233Z,2.2
2023-04-13T16:00:17.623Z,2.2
2023-04-13T16:01:26.135Z,2.2
2023-04-13T16:02:34.735Z,1.3
2023-04-13T16:03:43.223Z,1.3
2023-04-13T16:04:51.494Z,1.3
2023-04-13T16:06:00.054Z,3.4
2023-04-13T16:07:13.405Z,3.4
2023-04-13T16:08:16.814Z,3.4
2023-04-13T16:09:25.411Z,2.7
2023-04-13T16:10:33.821Z,2.7
2023-04-13T16:11:42.217Z,2.7
2023-04-13T16:12:50.797Z,3.1
2023-04-13T16:13:59.195Z,3.1
2023-04-13T16:15:07.573Z,3.1
2023-04-13T16:16:16.220Z,2.4
2023-04-13T16:17:24.600Z,2.4
2023-04-13T16:18:32.996Z,2.4
2023-04-13T16:19:41.595Z,2.3
2023-04-13T16:20:49.986Z,2.3
2023-04-13T16:21:58.377Z,2.3
2023-04-13T16:23:06.990Z,4.6
2023-04-13T16:24:15.364Z,4.6